This is the latest recevied weather packets stored in our database for station/object N5SRF. If no packets are shown the sender has not sent any weather packets the latest 10 day(s).
| Time | Temp. | Humidity | Pressure | Rain* | Wind** | Luminosity | Snow |
|---|---|---|---|---|---|---|---|
| 1777642468 | 15° C | 99% | 1018.1 hPa | 10.67 mm | - | 12 W/m² | - |
| 1777642164 | 15° C | 99% | 1018.1 hPa | 11.94 mm | - | 10 W/m² | - |
| 1777641861 | 15° C | 99% | 1018.5 hPa | 11.94 mm | - | 8 W/m² | - |
| 1777641561 | 15° C | 99% | 1018.4 hPa | 11.94 mm | - | 6 W/m² | - |
| 1777641261 | 15° C | 99% | 1018.1 hPa | 10.67 mm | - | 6 W/m² | - |
| 1777640958 | 15° C | 99% | 1018 hPa | 9.65 mm | - | 9 W/m² | - |
| 1777640655 | 15° C | 99% | 1017.7 hPa | 8.89 mm | - | 7 W/m² | - |
| 1777640351 | 15° C | 99% | 1017.5 hPa | 10.16 mm | - | 7 W/m² | - |
| 1777640048 | 15° C | 99% | 1017.1 hPa | 12.7 mm | - | 10 W/m² | - |
| 1777639744 | 15° C | 99% | 1017.4 hPa | 12.7 mm | - | 6 W/m² | - |
| 1777639443 | 15° C | 99% | 1018.1 hPa | 16.76 mm | - | 2 W/m² | - |
| 1777639137 | 15° C | 99% | 1018 hPa | 16.76 mm | - | 4 W/m² | - |
| 1777638835 | 15° C | 99% | 1017.9 hPa | 16.26 mm | - | 5 W/m² | - |
| 1777638530 | 15° C | 99% | 1017.7 hPa | 12.7 mm | - | 3 W/m² | - |
| 1777638227 | 15° C | 99% | 1017.1 hPa | 6.6 mm | - | 3 W/m² | - |
| 1777637923 | 15.56° C | 99% | 1016.7 hPa | 6.1 mm | - | 3 W/m² | - |
| 1777637619 | 15.56° C | 99% | 1016.5 hPa | 6.1 mm | - | 2 W/m² | - |
| 1777637317 | 15.56° C | 99% | 1016.3 hPa | 6.1 mm | - | 1 W/m² | - |
| 1777637013 | 15.56° C | 99% | 1016.4 hPa | 6.1 mm | - | 1 W/m² | - |
| 1777636709 | 15.56° C | 99% | 1016.1 hPa | 4.83 mm | - | 1 W/m² | - |
| 1777636406 | 15.56° C | 99% | 1016.3 hPa | 3.05 mm | - | 0 W/m² | - |
| 1777636101 | 15.56° C | 99% | 1016.6 hPa | 4.32 mm | - | 0 W/m² | - |
| 1777635796 | 15.56° C | 99% | 1016.4 hPa | 6.1 mm | - | 0 W/m² | - |
| 1777635493 | 15.56° C | 99% | 1016.2 hPa | 4.83 mm | - | 0 W/m² | - |
| 1777635190 | 15.56° C | 99% | 1016.1 hPa | 1.78 mm | - | 0 W/m² | - |
* Rain latest hour (hover to see other rain measurements)
** Current wind speed in m/s (hover to see current wind gust speed)